createdAt,value
2019-06-04T00:02:17.728Z,6.00
2019-06-04T00:07:21.882Z,5.20
2019-06-04T00:12:25.885Z,5.75
2019-06-04T00:17:29.896Z,4.60
2019-06-04T00:22:33.869Z,4.50
2019-06-04T00:27:37.889Z,5.20
2019-06-04T00:32:41.897Z,4.50
2019-06-04T00:37:45.883Z,4.50
2019-06-04T00:42:49.893Z,5.00
2019-06-04T00:47:53.911Z,4.00
2019-06-04T00:52:59.330Z,5.00
2019-06-04T00:58:06.096Z,5.50
2019-06-04T01:03:10.176Z,5.50
2019-06-04T01:08:21.155Z,5.00
2019-06-04T01:13:20.239Z,6.00
2019-06-04T01:18:24.243Z,6.75
2019-06-04T01:23:28.270Z,5.80
2019-06-04T01:28:32.404Z,5.80
2019-06-04T01:33:40.282Z,6.20
2019-06-04T01:38:42.293Z,5.40
2019-06-04T01:43:46.278Z,6.00
2019-06-04T01:48:50.280Z,5.00
2019-06-04T01:53:56.394Z,6.60
2019-06-04T01:59:00.409Z,6.25
2019-06-04T02:04:05.271Z,5.80
2019-06-04T02:09:10.145Z,6.75
2019-06-04T02:14:15.100Z,5.00
2019-06-04T02:19:19.345Z,6.60
2019-06-04T02:24:23.386Z,6.80
2019-06-04T02:29:27.405Z,6.00
2019-06-04T02:34:31.407Z,6.60
2019-06-04T02:39:35.705Z,6.80
2019-06-04T02:44:39.870Z,5.80
2019-06-04T02:49:45.052Z,8.00
2019-06-04T02:54:49.637Z,7.75
2019-06-04T02:59:55.947Z,8.00
2019-06-04T03:04:59.998Z,7.80
2019-06-04T03:10:04.709Z,8.50
2019-06-04T03:15:09.566Z,9.00
2019-06-04T03:20:14.418Z,7.50
2019-06-04T03:25:19.471Z,9.20
2019-06-04T03:30:26.520Z,8.00
2019-06-04T03:35:29.474Z,7.00
2019-06-04T03:40:33.510Z,7.50
2019-06-04T03:45:37.533Z,7.80
2019-06-04T03:50:41.589Z,7.75
2019-06-04T03:55:45.776Z,9.40
2019-06-04T04:00:49.839Z,10.25
2019-06-04T04:05:53.985Z,8.25
2019-06-04T04:10:58.057Z,10.50
2019-06-04T04:16:02.092Z,8.25
2019-06-04T04:21:06.217Z,9.25
2019-06-04T04:26:10.264Z,10.40
2019-06-04T04:31:14.274Z,8.80
2019-06-04T04:36:19.229Z,9.80
2019-06-04T04:41:24.134Z,10.00
2019-06-04T04:46:28.907Z,10.75
2019-06-04T04:51:33.037Z,11.25
2019-06-04T04:56:37.147Z,11.00
2019-06-04T05:01:41.253Z,11.60
2019-06-04T05:06:46.881Z,10.60
2019-06-04T05:11:52.564Z,11.75
2019-06-04T05:16:58.758Z,11.20
2019-06-04T05:22:03.197Z,10.50
2019-06-04T05:27:07.452Z,8.75
2019-06-04T05:32:11.448Z,10.00
2019-06-04T05:37:15.565Z,11.00
2019-06-04T05:42:20.218Z,9.50
2019-06-04T05:47:24.489Z,10.00
2019-06-04T05:52:29.024Z,10.00
2019-06-04T05:57:33.876Z,11.75
2019-06-04T06:02:38.018Z,10.75
2019-06-04T06:07:42.055Z,9.75
2019-06-04T06:12:46.110Z,9.50
2019-06-04T06:17:50.234Z,9.00
2019-06-04T06:23:10.217Z,8.80
2019-06-04T06:28:00.141Z,8.75
2019-06-04T06:33:04.311Z,9.40
2019-06-04T06:38:08.506Z,10.80
2019-06-04T06:43:12.591Z,9.80
2019-06-04T06:48:16.798Z,9.75
2019-06-04T06:53:20.919Z,10.00
2019-06-04T06:58:24.979Z,10.00
2019-06-04T07:03:29.151Z,8.60
2019-06-04T07:08:34.601Z,8.00
2019-06-04T07:13:42.009Z,8.00
2019-06-04T07:18:44.819Z,7.40
2019-06-04T07:23:48.835Z,8.20
2019-06-04T07:28:52.903Z,8.20
2019-06-04T07:33:56.910Z,7.75
2019-06-04T07:39:00.924Z,9.60
2019-06-04T07:44:05.878Z,8.25
2019-06-04T07:49:10.050Z,7.00
2019-06-04T07:54:14.388Z,9.50
2019-06-04T07:59:18.695Z,7.60
2019-06-04T08:04:22.832Z,7.40
2019-06-04T08:09:27.157Z,8.00
2019-06-04T08:14:31.180Z,7.50
2019-06-04T08:19:35.761Z,8.75
2019-06-04T08:24:39.996Z,7.00
2019-06-04T08:29:45.685Z,8.00
2019-06-04T08:34:49.778Z,6.20
2019-06-04T08:39:53.790Z,6.00
2019-06-04T08:45:01.375Z,8.00
2019-06-04T08:50:03.859Z,6.20
2019-06-04T08:55:08.300Z,6.60
2019-06-04T09:00:13.346Z,6.60
2019-06-04T09:05:17.515Z,5.40
2019-06-04T09:10:30.456Z,7.40
2019-06-04T09:15:34.600Z,7.25
2019-06-04T09:20:40.049Z,5.20
2019-06-04T09:25:47.379Z,6.00
2019-06-04T09:31:01.707Z,7.80
2019-06-04T09:35:56.153Z,7.00
2019-06-04T09:41:00.137Z,7.50
2019-06-04T09:46:04.209Z,6.00
2019-06-04T09:51:08.341Z,6.50
2019-06-04T09:56:12.341Z,6.20
2019-06-04T10:01:16.341Z,6.60
2019-06-04T10:06:20.700Z,5.80
2019-06-04T10:11:24.768Z,7.00
2019-06-04T10:16:28.907Z,6.00
2019-06-04T10:21:32.894Z,5.80
2019-06-04T10:26:36.957Z,6.50
2019-06-04T10:31:40.949Z,6.25
2019-06-04T10:36:56.042Z,6.50
2019-06-04T10:41:51.453Z,6.20
2019-06-04T10:46:56.077Z,6.40
2019-06-04T10:52:00.300Z,7.80
2019-06-04T10:57:04.457Z,8.00
2019-06-04T11:02:08.607Z,7.50
2019-06-04T11:07:12.728Z,8.00
2019-06-04T11:12:16.731Z,7.40
2019-06-04T11:17:20.821Z,6.60
2019-06-04T11:22:24.967Z,7.20
2019-06-04T11:27:29.062Z,7.80
2019-06-04T11:32:33.202Z,6.40
2019-06-04T11:37:37.413Z,7.80
2019-06-04T11:42:41.557Z,6.75
2019-06-04T11:47:45.735Z,9.20
2019-06-04T11:52:51.380Z,8.75
2019-06-04T11:57:57.751Z,7.50
2019-06-04T12:03:03.676Z,8.00
2019-06-04T12:08:07.914Z,8.75
2019-06-04T12:13:12.001Z,7.50
2019-06-04T12:18:16.213Z,8.00
2019-06-04T12:23:30.960Z,9.00
2019-06-04T12:28:26.237Z,6.80
2019-06-04T12:33:30.499Z,7.75
2019-06-04T12:38:34.659Z,8.25
2019-06-04T12:43:38.841Z,6.80
2019-06-04T12:48:42.984Z,8.00
2019-06-04T12:53:47.598Z,6.00
2019-06-04T12:58:52.257Z,7.50
2019-06-04T13:03:58.303Z,6.00
2019-06-04T13:09:04.971Z,6.75
2019-06-04T13:14:10.680Z,7.00
2019-06-04T13:19:16.982Z,5.00
2019-06-04T13:24:21.313Z,5.40
2019-06-04T13:29:43.598Z,5.40
2019-06-04T13:34:31.201Z,6.00
2019-06-04T13:39:35.197Z,5.25
2019-06-04T13:44:39.297Z,6.00
2019-06-04T13:49:43.445Z,5.25
2019-06-04T13:54:48.554Z,6.50
2019-06-04T13:59:52.713Z,5.60
2019-06-04T14:04:56.785Z,6.00
2019-06-04T14:10:00.847Z,5.80
2019-06-04T14:15:05.751Z,4.00
2019-06-04T14:20:11.948Z,5.00
2019-06-04T14:25:18.464Z,5.00
2019-06-04T14:30:23.586Z,5.00
2019-06-04T14:35:27.684Z,4.25
2019-06-04T14:40:33.579Z,4.75
2019-06-04T14:45:37.524Z,4.75
2019-06-04T14:50:45.275Z,5.00
2019-06-04T14:55:48.733Z,3.80
2019-06-04T15:00:52.732Z,4.25
2019-06-04T15:05:56.761Z,3.50
2019-06-04T15:11:00.771Z,4.00
2019-06-04T15:16:05.154Z,3.00
2019-06-04T15:21:10.562Z,3.75
2019-06-04T15:26:20.689Z,5.00
2019-06-04T15:31:22.039Z,3.80
2019-06-04T15:36:26.807Z,3.50
2019-06-04T15:41:45.597Z,3.00
2019-06-04T15:46:36.762Z,4.00
2019-06-04T15:51:40.799Z,4.00
2019-06-04T15:56:44.840Z,3.00
2019-06-04T16:01:48.865Z,4.00
2019-06-04T16:06:52.983Z,3.75
2019-06-04T16:12:06.954Z,3.50
2019-06-04T16:17:02.863Z,3.80
2019-06-04T16:22:06.995Z,3.00
2019-06-04T16:27:11.006Z,3.75
2019-06-04T16:32:15.121Z,3.20
2019-06-04T16:37:19.145Z,3.00
2019-06-04T16:42:32.364Z,3.20
2019-06-04T16:47:29.522Z,3.50
2019-06-04T16:52:33.775Z,3.40
2019-06-04T16:57:37.955Z,3.00
2019-06-04T17:02:42.025Z,2.50
2019-06-04T17:07:46.183Z,3.20
2019-06-04T17:12:52.334Z,2.75
2019-06-04T17:17:56.576Z,1.80
2019-06-04T17:23:00.823Z,3.00
2019-06-04T17:28:05.795Z,4.00
2019-06-04T17:33:10.057Z,2.40
2019-06-04T17:38:14.206Z,2.75
2019-06-04T17:43:18.208Z,2.50
2019-06-04T17:48:23.782Z,3.00
2019-06-04T17:53:28.385Z,2.25
2019-06-04T17:58:32.879Z,3.20
2019-06-04T18:03:37.082Z,3.75
2019-06-04T18:08:41.338Z,2.80
2019-06-04T18:13:45.354Z,2.00
2019-06-04T18:18:49.506Z,2.40
2019-06-04T18:23:53.603Z,2.75
2019-06-04T18:28:57.651Z,2.60
2019-06-04T18:34:01.670Z,3.25
2019-06-04T18:39:06.844Z,3.00
2019-06-04T18:44:10.875Z,3.00
2019-06-04T18:49:14.898Z,2.50
2019-06-04T18:54:18.983Z,2.75
2019-06-04T18:59:23.130Z,2.00
2019-06-04T19:04:27.160Z,3.25
2019-06-04T19:09:31.223Z,3.50
2019-06-04T19:14:35.375Z,2.40
2019-06-04T19:19:39.475Z,2.40
2019-06-04T19:24:43.633Z,2.75
2019-06-04T19:29:47.680Z,2.80
2019-06-04T19:34:51.760Z,3.00
2019-06-04T19:39:56.064Z,4.25
2019-06-04T19:45:00.285Z,3.80
2019-06-04T19:50:04.794Z,4.60
2019-06-04T19:55:09.444Z,5.20
2019-06-04T20:00:13.697Z,4.60
2019-06-04T20:05:18.021Z,3.60
2019-06-04T20:10:22.174Z,5.00
2019-06-04T20:15:26.255Z,4.80
2019-06-04T20:20:30.314Z,5.40
2019-06-04T20:25:34.334Z,5.00
2019-06-04T20:30:38.971Z,5.60
2019-06-04T20:35:43.901Z,6.80
2019-06-04T20:40:49.772Z,6.00
2019-06-04T20:45:54.046Z,5.00
2019-06-04T20:50:58.059Z,5.50
2019-06-04T20:56:02.057Z,6.00
2019-06-04T21:01:06.138Z,7.00
2019-06-04T21:06:10.125Z,7.00
2019-06-04T21:11:14.271Z,6.75
2019-06-04T21:16:18.252Z,7.50
2019-06-04T21:21:22.245Z,7.50
2019-06-04T21:26:26.612Z,8.00
2019-06-04T21:31:30.949Z,7.75
2019-06-04T21:36:35.051Z,9.25
2019-06-04T21:41:39.141Z,7.25
2019-06-04T21:46:43.209Z,9.00
2019-06-04T21:51:48.751Z,10.75
2019-06-04T21:56:53.569Z,10.00
2019-06-04T22:02:00.068Z,9.60
2019-06-04T22:07:04.406Z,11.00
2019-06-04T22:12:08.480Z,9.75
2019-06-04T22:17:12.654Z,11.75
2019-06-04T22:22:16.809Z,9.50
2019-06-04T22:27:20.904Z,9.00
2019-06-04T22:32:25.066Z,11.60
2019-06-04T22:37:29.059Z,11.75
2019-06-04T22:42:33.146Z,10.40
2019-06-04T22:47:37.243Z,9.00
2019-06-04T22:52:41.304Z,11.75
2019-06-04T22:57:45.357Z,12.25
2019-06-04T23:02:49.512Z,12.25
2019-06-04T23:07:54.018Z,10.25
2019-06-04T23:12:58.920Z,11.20
2019-06-04T23:18:07.856Z,11.20
2019-06-04T23:23:08.880Z,11.80
2019-06-04T23:28:12.999Z,11.25
2019-06-04T23:33:17.033Z,11.00
2019-06-04T23:38:21.062Z,12.75
2019-06-04T23:43:25.072Z,13.00
2019-06-04T23:48:29.106Z,12.25
2019-06-04T23:53:33.131Z,12.75
2019-06-04T23:58:37.156Z,13.00
